world map with ALH marked

ALH - Airport

This information may not be accurate or current and is not valid for navigation or flight planning. No warranty of fitness for any purpose is made or implied.

flag of Western Australiaflag of Australia

Donate via PayPal

Additional information is available on the NEW Great Circle Mapper

Location
City:  Albany, Western Australia, Australia
ICAO / IATA:YABA / ALH

Details
Type:Airport (Aerodrome, Airfield)
Latitude:34°56'36"S (-34.943332)
Longitude:117°48'32"E (117.808889)
Datum:WGS 1984
Elevation:233 ft (71 m)
Runways:2
Longest:5906 × 98 ft (1800 × 30 m)

Time
Timezone:UTC+8 (DST+10)
Local Time:

Weather
METAR:YABA  162300Z AUTO 32012KT 9999 // SCT043 OVC057 09/06 Q1012

Related Locations
Nearby:
Farthest:BDA: 12207 mi / 19645 km
Bermuda (St. George) [L.F. Wade Intl (Bermuda Intl, Kindley Field)], BM

Find:

   beyond  
but within

Other Information
Maps:
Sources:

  


 


Great Circle Mapper   Great Circle Mapper
Great Circle Mapper FAQ   Great Circle Mapper FAQ
  Karl's Home Page
KLSē   KLSē Home
   GC on Facebook
Airlines of the World   Airlines of the World
Donate via PayPal


Copyright © 2004-2018, Karl L. Swartz. All rights reserved.
All trademarks mentioned herein belong to their respective owners.

Please see credits for attribution and copyright information.

Karl Swartz <karl@kls2.com>
  Powered by FreeBSD
Valid HTML 4.01!
Labeled with ICRA
hCard Microformat
Geo Microformat